sensor_id;sensor_type;location;lat;lon;timestamp;P1;P2;P0
45700;PMS5003;36277;32.852;-116.998;2023-05-07T00:00:58;0.00;0.00;0.00
45700;PMS5003;36277;32.852;-116.998;2023-05-07T00:03:25;0.00;0.00;0.00
45700;PMS5003;36277;32.852;-116.998;2023-05-07T00:05:51;0.00;0.00;0.00
45700;PMS5003;36277;32.852;-116.998;2023-05-07T00:08:20;0.00;0.00;0.00
45700;PMS5003;36277;32.852;-116.998;2023-05-07T00:10:47;0.00;0.00;0.00
45700;PMS5003;36277;32.852;-116.998;2023-05-07T00:13:13;0.00;0.00;0.00
45700;PMS5003;36277;32.852;-116.998;2023-05-07T00:15:39;0.00;0.00;0.00
45700;PMS5003;36277;32.852;-116.998;2023-05-07T00:18:05;0.00;0.00;0.00
45700;PMS5003;36277;32.852;-116.998;2023-05-07T00:20:32;0.00;0.00;0.00
45700;PMS5003;36277;32.852;-116.998;2023-05-07T00:22:58;0.00;0.00;0.00
45700;PMS5003;36277;32.852;-116.998;2023-05-07T00:25:24;0.00;0.00;0.00
45700;PMS5003;36277;32.852;-116.998;2023-05-07T00:27:50;0.00;0.00;0.00
45700;PMS5003;36277;32.852;-116.998;2023-05-07T00:30:17;0.00;0.00;0.00
45700;PMS5003;36277;32.852;-116.998;2023-05-07T00:32:43;0.00;0.00;0.00
45700;PMS5003;36277;32.852;-116.998;2023-05-07T00:35:10;0.00;0.00;0.00
45700;PMS5003;36277;32.852;-116.998;2023-05-07T00:37:37;0.00;0.00;0.00
45700;PMS5003;36277;32.852;-116.998;2023-05-07T00:40:03;0.00;0.00;0.00
45700;PMS5003;36277;32.852;-116.998;2023-05-07T00:42:32;0.00;0.00;0.00
45700;PMS5003;36277;32.852;-116.998;2023-05-07T00:44:58;0.00;0.00;0.00
45700;PMS5003;36277;32.852;-116.998;2023-05-07T00:47:25;0.00;0.00;0.00
45700;PMS5003;36277;32.852;-116.998;2023-05-07T00:49:51;0.00;0.00;0.00
45700;PMS5003;36277;32.852;-116.998;2023-05-07T00:52:18;0.00;0.00;0.00
45700;PMS5003;36277;32.852;-116.998;2023-05-07T00:54:47;0.00;0.00;0.00
45700;PMS5003;36277;32.852;-116.998;2023-05-07T00:57:13;0.00;0.00;0.00
45700;PMS5003;36277;32.852;-116.998;2023-05-07T00:59:40;0.00;0.00;0.00
45700;PMS5003;36277;32.852;-116.998;2023-05-07T01:02:07;0.00;0.00;0.00
45700;PMS5003;36277;32.852;-116.998;2023-05-07T01:04:33;0.00;0.00;0.00
45700;PMS5003;36277;32.852;-116.998;2023-05-07T01:07:00;0.00;0.00;0.00
45700;PMS5003;36277;32.852;-116.998;2023-05-07T01:09:27;0.00;0.00;0.00
45700;PMS5003;36277;32.852;-116.998;2023-05-07T01:11:54;0.00;0.00;0.00
45700;PMS5003;36277;32.852;-116.998;2023-05-07T01:14:23;1.00;1.00;1.00
45700;PMS5003;36277;32.852;-116.998;2023-05-07T01:16:50;0.40;0.40;0.40
45700;PMS5003;36277;32.852;-116.998;2023-05-07T01:19:17;0.20;0.20;0.20
45700;PMS5003;36277;32.852;-116.998;2023-05-07T01:21:45;1.80;1.80;0.80
45700;PMS5003;36277;32.852;-116.998;2023-05-07T01:24:14;2.00;2.00;1.20
45700;PMS5003;36277;32.852;-116.998;2023-05-07T01:26:42;0.40;0.40;0.40
45700;PMS5003;36277;32.852;-116.998;2023-05-07T01:29:09;0.00;0.00;0.00
45700;PMS5003;36277;32.852;-116.998;2023-05-07T01:31:36;0.00;0.00;0.00
45700;PMS5003;36277;32.852;-116.998;2023-05-07T01:34:04;4.40;4.40;3.40
45700;PMS5003;36277;32.852;-116.998;2023-05-07T01:36:33;7.40;7.40;5.40
45700;PMS5003;36277;32.852;-116.998;2023-05-07T01:39:00;8.00;8.00;5.60
45700;PMS5003;36277;32.852;-116.998;2023-05-07T01:41:27;7.00;7.00;6.00
45700;PMS5003;36277;32.852;-116.998;2023-05-07T01:43:54;7.00;7.00;5.80
45700;PMS5003;36277;32.852;-116.998;2023-05-07T01:46:22;5.00;5.00;4.00
45700;PMS5003;36277;32.852;-116.998;2023-05-07T01:48:50;4.00;4.00;3.00
45700;PMS5003;36277;32.852;-116.998;2023-05-07T01:51:16;4.40;4.40;3.60
45700;PMS5003;36277;32.852;-116.998;2023-05-07T01:53:45;3.40;3.40;3.40
45700;PMS5003;36277;32.852;-116.998;2023-05-07T01:56:16;3.80;3.80;3.60
45700;PMS5003;36277;32.852;-116.998;2023-05-07T01:58:44;3.40;3.40;3.20
45700;PMS5003;36277;32.852;-116.998;2023-05-07T02:01:12;4.00;4.00;4.00
45700;PMS5003;36277;32.852;-116.998;2023-05-07T02:03:39;4.00;4.00;3.60
45700;PMS5003;36277;32.852;-116.998;2023-05-07T02:06:05;3.00;3.00;3.00
45700;PMS5003;36277;32.852;-116.998;2023-05-07T02:08:32;3.40;3.40;3.00
45700;PMS5003;36277;32.852;-116.998;2023-05-07T02:10:58;3.00;3.00;3.00
45700;PMS5003;36277;32.852;-116.998;2023-05-07T02:13:25;2.40;2.40;2.20
45700;PMS5003;36277;32.852;-116.998;2023-05-07T02:15:55;2.00;2.00;2.00
45700;PMS5003;36277;32.852;-116.998;2023-05-07T02:18:22;2.60;2.60;2.20
45700;PMS5003;36277;32.852;-116.998;2023-05-07T02:20:48;5.00;5.00;4.00
45700;PMS5003;36277;32.852;-116.998;2023-05-07T02:23:14;4.40;4.40;4.00
45700;PMS5003;36277;32.852;-116.998;2023-05-07T02:25:41;4.00;4.00;3.20
45700;PMS5003;36277;32.852;-116.998;2023-05-07T02:28:07;3.80;3.80;3.00
45700;PMS5003;36277;32.852;-116.998;2023-05-07T02:30:33;4.00;4.00;3.80
45700;PMS5003;36277;32.852;-116.998;2023-05-07T02:32:59;4.20;4.20;3.60
45700;PMS5003;36277;32.852;-116.998;2023-05-07T02:35:26;3.40;3.40;3.00
45700;PMS5003;36277;32.852;-116.998;2023-05-07T02:37:52;3.00;3.00;3.00
45700;PMS5003;36277;32.852;-116.998;2023-05-07T02:40:18;4.00;4.00;3.00
45700;PMS5003;36277;32.852;-116.998;2023-05-07T02:42:44;5.80;5.80;5.00
45700;PMS5003;36277;32.852;-116.998;2023-05-07T02:45:10;4.40;4.40;4.00
45700;PMS5003;36277;32.852;-116.998;2023-05-07T02:47:37;3.40;3.40;3.00
45700;PMS5003;36277;32.852;-116.998;2023-05-07T02:50:03;4.00;4.00;3.00
45700;PMS5003;36277;32.852;-116.998;2023-05-07T02:52:30;3.00;3.00;3.00
45700;PMS5003;36277;32.852;-116.998;2023-05-07T02:54:56;4.60;4.60;3.80
45700;PMS5003;36277;32.852;-116.998;2023-05-07T02:57:22;4.00;4.00;3.00
45700;PMS5003;36277;32.852;-116.998;2023-05-07T02:59:49;3.80;3.80;3.40
45700;PMS5003;36277;32.852;-116.998;2023-05-07T03:02:16;3.60;3.60;3.00
45700;PMS5003;36277;32.852;-116.998;2023-05-07T03:04:42;2.40;2.40;2.00
45700;PMS5003;36277;32.852;-116.998;2023-05-07T03:07:08;4.00;4.00;4.00
45700;PMS5003;36277;32.852;-116.998;2023-05-07T03:09:34;3.40;3.40;3.20
45700;PMS5003;36277;32.852;-116.998;2023-05-07T03:12:00;2.80;2.80;2.20
45700;PMS5003;36277;32.852;-116.998;2023-05-07T03:14:27;2.00;2.00;2.00
45700;PMS5003;36277;32.852;-116.998;2023-05-07T03:16:53;3.00;3.00;3.00
45700;PMS5003;36277;32.852;-116.998;2023-05-07T03:19:20;2.00;2.00;1.80
45700;PMS5003;36277;32.852;-116.998;2023-05-07T03:21:46;2.40;2.40;2.00
45700;PMS5003;36277;32.852;-116.998;2023-05-07T03:24:12;1.40;1.40;1.00
45700;PMS5003;36277;32.852;-116.998;2023-05-07T03:26:38;1.00;1.00;0.80
45700;PMS5003;36277;32.852;-116.998;2023-05-07T03:29:05;0.40;0.40;0.40
45700;PMS5003;36277;32.852;-116.998;2023-05-07T03:31:31;1.00;1.00;1.00
45700;PMS5003;36277;32.852;-116.998;2023-05-07T03:33:58;0.00;0.00;0.00
45700;PMS5003;36277;32.852;-116.998;2023-05-07T03:36:24;0.80;0.80;0.40
45700;PMS5003;36277;32.852;-116.998;2023-05-07T03:38:52;0.40;0.40;0.40
45700;PMS5003;36277;32.852;-116.998;2023-05-07T03:41:19;1.20;1.20;1.20
45700;PMS5003;36277;32.852;-116.998;2023-05-07T03:43:45;1.00;1.00;0.80
45700;PMS5003;36277;32.852;-116.998;2023-05-07T03:46:11;1.00;1.00;1.00
45700;PMS5003;36277;32.852;-116.998;2023-05-07T03:48:38;1.00;1.00;0.20
45700;PMS5003;36277;32.852;-116.998;2023-05-07T03:51:04;1.00;1.00;1.00
45700;PMS5003;36277;32.852;-116.998;2023-05-07T03:53:30;1.00;1.00;1.00
45700;PMS5003;36277;32.852;-116.998;2023-05-07T03:55:56;1.00;1.00;1.00
45700;PMS5003;36277;32.852;-116.998;2023-05-07T03:58:23;0.80;0.80;0.80
45700;PMS5003;36277;32.852;-116.998;2023-05-07T04:00:49;0.80;0.80;0.80
45700;PMS5003;36277;32.852;-116.998;2023-05-07T04:03:15;0.40;0.40;0.20
45700;PMS5003;36277;32.852;-116.998;2023-05-07T04:05:41;1.00;1.00;1.00
45700;PMS5003;36277;32.852;-116.998;2023-05-07T04:08:07;1.00;1.00;1.00
45700;PMS5003;36277;32.852;-116.998;2023-05-07T04:10:34;0.20;0.20;0.20
45700;PMS5003;36277;32.852;-116.998;2023-05-07T04:13:00;0.00;0.00;0.00
45700;PMS5003;36277;32.852;-116.998;2023-05-07T04:15:26;1.00;1.00;1.00
45700;PMS5003;36277;32.852;-116.998;2023-05-07T04:17:53;1.20;1.20;1.00
45700;PMS5003;36277;32.852;-116.998;2023-05-07T04:20:19;0.60;0.60;0.00
45700;PMS5003;36277;32.852;-116.998;2023-05-07T04:22:45;1.00;1.00;1.00
45700;PMS5003;36277;32.852;-116.998;2023-05-07T04:25:11;0.80;0.80;0.80
45700;PMS5003;36277;32.852;-116.998;2023-05-07T04:27:37;1.00;1.00;1.00
45700;PMS5003;36277;32.852;-116.998;2023-05-07T04:30:04;1.40;1.40;1.00
45700;PMS5003;36277;32.852;-116.998;2023-05-07T04:32:31;1.00;1.00;1.00
45700;PMS5003;36277;32.852;-116.998;2023-05-07T04:34:58;1.00;1.00;1.00
45700;PMS5003;36277;32.852;-116.998;2023-05-07T04:37:25;1.00;1.00;1.00
45700;PMS5003;36277;32.852;-116.998;2023-05-07T04:39:51;0.80;0.80;0.80
45700;PMS5003;36277;32.852;-116.998;2023-05-07T04:42:18;1.00;1.00;1.00
45700;PMS5003;36277;32.852;-116.998;2023-05-07T04:44:44;1.40;1.40;1.20
45700;PMS5003;36277;32.852;-116.998;2023-05-07T04:47:11;1.00;1.00;1.00
45700;PMS5003;36277;32.852;-116.998;2023-05-07T04:49:38;0.00;0.00;0.00
45700;PMS5003;36277;32.852;-116.998;2023-05-07T04:52:04;1.00;1.00;1.00
45700;PMS5003;36277;32.852;-116.998;2023-05-07T04:54:31;1.20;1.20;1.00
45700;PMS5003;36277;32.852;-116.998;2023-05-07T04:56:57;1.00;1.00;1.00
45700;PMS5003;36277;32.852;-116.998;2023-05-07T04:59:23;1.00;1.00;1.00
45700;PMS5003;36277;32.852;-116.998;2023-05-07T05:01:49;1.00;1.00;1.00
45700;PMS5003;36277;32.852;-116.998;2023-05-07T05:04:15;1.00;1.00;1.00
45700;PMS5003;36277;32.852;-116.998;2023-05-07T05:06:42;1.00;1.00;1.00
45700;PMS5003;36277;32.852;-116.998;2023-05-07T05:09:08;1.00;1.00;1.00
45700;PMS5003;36277;32.852;-116.998;2023-05-07T05:11:34;0.60;0.60;0.60
45700;PMS5003;36277;32.852;-116.998;2023-05-07T05:14:01;0.40;0.40;0.40
45700;PMS5003;36277;32.852;-116.998;2023-05-07T05:16:27;1.00;1.00;0.80
45700;PMS5003;36277;32.852;-116.998;2023-05-07T05:18:53;1.00;1.00;1.00
45700;PMS5003;36277;32.852;-116.998;2023-05-07T05:21:20;0.00;0.00;0.00
45700;PMS5003;36277;32.852;-116.998;2023-05-07T05:23:46;1.80;1.80;1.20
45700;PMS5003;36277;32.852;-116.998;2023-05-07T05:26:12;1.00;1.00;1.00
45700;PMS5003;36277;32.852;-116.998;2023-05-07T05:28:39;1.00;1.00;1.00
45700;PMS5003;36277;32.852;-116.998;2023-05-07T05:31:05;1.00;1.00;1.00
45700;PMS5003;36277;32.852;-116.998;2023-05-07T05:33:31;1.00;1.00;1.00
45700;PMS5003;36277;32.852;-116.998;2023-05-07T05:35:58;1.00;1.00;1.00
45700;PMS5003;36277;32.852;-116.998;2023-05-07T05:38:24;1.00;1.00;1.00
45700;PMS5003;36277;32.852;-116.998;2023-05-07T05:40:51;1.00;1.00;1.00
45700;PMS5003;36277;32.852;-116.998;2023-05-07T05:43:17;1.00;1.00;1.00
45700;PMS5003;36277;32.852;-116.998;2023-05-07T05:45:43;1.00;1.00;1.00
45700;PMS5003;36277;32.852;-116.998;2023-05-07T05:48:09;1.00;1.00;1.00
45700;PMS5003;36277;32.852;-116.998;2023-05-07T05:50:36;1.00;1.00;1.00
45700;PMS5003;36277;32.852;-116.998;2023-05-07T05:53:02;1.00;1.00;0.00
45700;PMS5003;36277;32.852;-116.998;2023-05-07T05:55:28;1.00;1.00;1.00
45700;PMS5003;36277;32.852;-116.998;2023-05-07T05:57:58;1.00;1.00;1.00
45700;PMS5003;36277;32.852;-116.998;2023-05-07T06:00:25;0.00;0.00;0.00
45700;PMS5003;36277;32.852;-116.998;2023-05-07T06:02:51;1.40;1.40;1.00
45700;PMS5003;36277;32.852;-116.998;2023-05-07T06:05:18;1.00;1.00;1.00
45700;PMS5003;36277;32.852;-116.998;2023-05-07T06:07:44;1.00;1.00;1.00
45700;PMS5003;36277;32.852;-116.998;2023-05-07T06:10:10;0.00;0.00;0.00
45700;PMS5003;36277;32.852;-116.998;2023-05-07T06:12:37;1.00;1.00;1.00
45700;PMS5003;36277;32.852;-116.998;2023-05-07T06:15:03;1.60;1.60;1.40
45700;PMS5003;36277;32.852;-116.998;2023-05-07T06:17:30;2.00;2.00;1.60
45700;PMS5003;36277;32.852;-116.998;2023-05-07T06:19:56;1.00;1.00;1.00
45700;PMS5003;36277;32.852;-116.998;2023-05-07T06:22:22;0.20;0.20;0.20
45700;PMS5003;36277;32.852;-116.998;2023-05-07T06:24:49;1.00;1.00;1.00
45700;PMS5003;36277;32.852;-116.998;2023-05-07T06:27:15;0.60;0.60;0.60
45700;PMS5003;36277;32.852;-116.998;2023-05-07T06:29:41;0.00;0.00;0.00
45700;PMS5003;36277;32.852;-116.998;2023-05-07T06:32:08;0.80;0.80;0.80
45700;PMS5003;36277;32.852;-116.998;2023-05-07T06:34:38;0.80;0.80;0.80
45700;PMS5003;36277;32.852;-116.998;2023-05-07T06:37:05;0.40;0.40;0.00
45700;PMS5003;36277;32.852;-116.998;2023-05-07T06:39:32;1.00;1.00;0.80
45700;PMS5003;36277;32.852;-116.998;2023-05-07T06:41:59;1.00;1.00;1.00
45700;PMS5003;36277;32.852;-116.998;2023-05-07T06:44:27;1.00;1.00;1.00
45700;PMS5003;36277;32.852;-116.998;2023-05-07T06:46:53;1.00;1.00;1.00
45700;PMS5003;36277;32.852;-116.998;2023-05-07T06:49:20;0.60;0.60;0.20
45700;PMS5003;36277;32.852;-116.998;2023-05-07T06:51:46;1.00;1.00;1.00
45700;PMS5003;36277;32.852;-116.998;2023-05-07T06:54:12;1.00;1.00;1.00
45700;PMS5003;36277;32.852;-116.998;2023-05-07T06:56:38;1.00;1.00;1.00
45700;PMS5003;36277;32.852;-116.998;2023-05-07T06:59:05;0.00;0.00;0.00
45700;PMS5003;36277;32.852;-116.998;2023-05-07T07:01:32;0.00;0.00;0.00
45700;PMS5003;36277;32.852;-116.998;2023-05-07T07:03:58;1.00;1.00;0.00
45700;PMS5003;36277;32.852;-116.998;2023-05-07T07:06:25;1.00;1.00;1.00
45700;PMS5003;36277;32.852;-116.998;2023-05-07T07:08:52;0.00;0.00;0.00
45700;PMS5003;36277;32.852;-116.998;2023-05-07T07:11:18;1.00;1.00;1.00
45700;PMS5003;36277;32.852;-116.998;2023-05-07T07:13:44;1.00;1.00;1.00
45700;PMS5003;36277;32.852;-116.998;2023-05-07T07:16:10;1.00;1.00;0.80
45700;PMS5003;36277;32.852;-116.998;2023-05-07T07:18:37;0.80;0.80;0.80
45700;PMS5003;36277;32.852;-116.998;2023-05-07T07:21:03;1.00;1.00;1.00
45700;PMS5003;36277;32.852;-116.998;2023-05-07T07:23:30;0.00;0.00;0.00
45700;PMS5003;36277;32.852;-116.998;2023-05-07T07:25:56;0.00;0.00;0.00
45700;PMS5003;36277;32.852;-116.998;2023-05-07T07:28:22;0.00;0.00;0.00
45700;PMS5003;36277;32.852;-116.998;2023-05-07T07:30:48;1.00;1.00;1.00
45700;PMS5003;36277;32.852;-116.998;2023-05-07T07:33:15;0.00;0.00;0.00
45700;PMS5003;36277;32.852;-116.998;2023-05-07T07:35:41;1.00;1.00;1.00
45700;PMS5003;36277;32.852;-116.998;2023-05-07T07:38:07;0.00;0.00;0.00
45700;PMS5003;36277;32.852;-116.998;2023-05-07T07:40:34;2.00;2.00;1.00
45700;PMS5003;36277;32.852;-116.998;2023-05-07T07:43:01;1.20;1.20;1.20
45700;PMS5003;36277;32.852;-116.998;2023-05-07T07:45:27;1.00;1.00;1.00
45700;PMS5003;36277;32.852;-116.998;2023-05-07T07:47:53;1.80;1.80;1.60
45700;PMS5003;36277;32.852;-116.998;2023-05-07T07:50:19;0.60;0.60;0.40
45700;PMS5003;36277;32.852;-116.998;2023-05-07T07:52:46;1.00;1.00;1.00
45700;PMS5003;36277;32.852;-116.998;2023-05-07T07:55:13;0.60;0.60;0.00
45700;PMS5003;36277;32.852;-116.998;2023-05-07T07:57:43;0.00;0.00;0.00
45700;PMS5003;36277;32.852;-116.998;2023-05-07T08:00:09;1.00;1.00;1.00
45700;PMS5003;36277;32.852;-116.998;2023-05-07T08:02:36;0.80;0.80;0.80
45700;PMS5003;36277;32.852;-116.998;2023-05-07T08:05:02;1.00;1.00;1.00
45700;PMS5003;36277;32.852;-116.998;2023-05-07T08:07:29;1.00;1.00;1.00
45700;PMS5003;36277;32.852;-116.998;2023-05-07T08:09:55;0.00;0.00;0.00
45700;PMS5003;36277;32.852;-116.998;2023-05-07T08:12:21;1.20;1.20;1.20
45700;PMS5003;36277;32.852;-116.998;2023-05-07T08:14:48;0.00;0.00;0.00
45700;PMS5003;36277;32.852;-116.998;2023-05-07T08:17:14;1.00;1.00;1.00
45700;PMS5003;36277;32.852;-116.998;2023-05-07T08:19:41;1.00;1.00;1.00
45700;PMS5003;36277;32.852;-116.998;2023-05-07T08:22:09;1.00;1.00;1.00
45700;PMS5003;36277;32.852;-116.998;2023-05-07T08:24:36;1.00;1.00;1.00
45700;PMS5003;36277;32.852;-116.998;2023-05-07T08:27:02;1.00;1.00;1.00
45700;PMS5003;36277;32.852;-116.998;2023-05-07T08:29:28;0.40;0.40;0.40
45700;PMS5003;36277;32.852;-116.998;2023-05-07T08:31:55;1.00;1.00;1.00
45700;PMS5003;36277;32.852;-116.998;2023-05-07T08:34:21;1.00;1.00;1.00
45700;PMS5003;36277;32.852;-116.998;2023-05-07T08:36:48;0.60;0.60;0.40
45700;PMS5003;36277;32.852;-116.998;2023-05-07T08:39:17;1.00;1.00;1.00
45700;PMS5003;36277;32.852;-116.998;2023-05-07T08:41:46;0.00;0.00;0.00
45700;PMS5003;36277;32.852;-116.998;2023-05-07T08:44:19;0.00;0.00;0.00
45700;PMS5003;36277;32.852;-116.998;2023-05-07T08:46:48;0.60;0.60;0.60
45700;PMS5003;36277;32.852;-116.998;2023-05-07T08:49:19;0.00;0.00;0.00
45700;PMS5003;36277;32.852;-116.998;2023-05-07T08:51:46;1.00;1.00;1.00
45700;PMS5003;36277;32.852;-116.998;2023-05-07T08:54:15;0.40;0.40;0.40
45700;PMS5003;36277;32.852;-116.998;2023-05-07T08:56:43;0.80;0.80;0.80
45700;PMS5003;36277;32.852;-116.998;2023-05-07T08:59:09;0.00;0.00;0.00
45700;PMS5003;36277;32.852;-116.998;2023-05-07T09:01:36;0.80;0.80;0.80
45700;PMS5003;36277;32.852;-116.998;2023-05-07T09:04:02;1.00;1.00;1.00
45700;PMS5003;36277;32.852;-116.998;2023-05-07T09:06:29;0.20;0.20;0.20
45700;PMS5003;36277;32.852;-116.998;2023-05-07T09:08:55;0.00;0.00;0.00
45700;PMS5003;36277;32.852;-116.998;2023-05-07T09:11:23;0.80;0.80;0.80
45700;PMS5003;36277;32.852;-116.998;2023-05-07T09:13:53;1.00;1.00;1.00
45700;PMS5003;36277;32.852;-116.998;2023-05-07T09:16:21;1.00;1.00;1.00
45700;PMS5003;36277;32.852;-116.998;2023-05-07T09:18:50;0.60;0.00;0.00
45700;PMS5003;36277;32.852;-116.998;2023-05-07T09:21:19;1.00;1.00;1.00
45700;PMS5003;36277;32.852;-116.998;2023-05-07T09:23:50;0.20;0.20;0.00
45700;PMS5003;36277;32.852;-116.998;2023-05-07T09:26:17;0.20;0.20;0.00
45700;PMS5003;36277;32.852;-116.998;2023-05-07T09:28:46;1.00;1.00;0.40
45700;PMS5003;36277;32.852;-116.998;2023-05-07T09:31:12;0.00;0.00;0.00
45700;PMS5003;36277;32.852;-116.998;2023-05-07T09:33:39;0.20;0.20;0.20
45700;PMS5003;36277;32.852;-116.998;2023-05-07T09:36:06;0.40;0.40;0.40
45700;PMS5003;36277;32.852;-116.998;2023-05-07T09:38:34;1.60;1.60;1.00
45700;PMS5003;36277;32.852;-116.998;2023-05-07T09:41:02;0.80;0.80;0.80
45700;PMS5003;36277;32.852;-116.998;2023-05-07T09:43:37;0.40;0.40;0.40
45700;PMS5003;36277;32.852;-116.998;2023-05-07T09:46:08;0.60;0.60;0.60
45700;PMS5003;36277;32.852;-116.998;2023-05-07T09:48:39;1.00;1.00;1.00
45700;PMS5003;36277;32.852;-116.998;2023-05-07T09:53:58;0.40;0.40;0.40
45700;PMS5003;36277;32.852;-116.998;2023-05-07T09:56:28;0.40;0.40;0.40
45700;PMS5003;36277;32.852;-116.998;2023-05-07T09:58:56;0.00;0.00;0.00
45700;PMS5003;36277;32.852;-116.998;2023-05-07T10:01:25;0.00;0.00;0.00
45700;PMS5003;36277;32.852;-116.998;2023-05-07T10:03:53;0.20;0.20;0.20
45700;PMS5003;36277;32.852;-116.998;2023-05-07T10:06:20;0.00;0.00;0.00
45700;PMS5003;36277;32.852;-116.998;2023-05-07T10:08:47;0.00;0.00;0.00
45700;PMS5003;36277;32.852;-116.998;2023-05-07T10:11:14;1.00;1.00;1.00
45700;PMS5003;36277;32.852;-116.998;2023-05-07T10:13:42;0.00;0.00;0.00
45700;PMS5003;36277;32.852;-116.998;2023-05-07T10:16:09;0.00;0.00;0.00
45700;PMS5003;36277;32.852;-116.998;2023-05-07T10:18:35;0.00;0.00;0.00
45700;PMS5003;36277;32.852;-116.998;2023-05-07T10:21:07;0.00;0.00;0.00
45700;PMS5003;36277;32.852;-116.998;2023-05-07T10:23:36;0.00;0.00;0.00
45700;PMS5003;36277;32.852;-116.998;2023-05-07T10:26:06;0.00;0.00;0.00
45700;PMS5003;36277;32.852;-116.998;2023-05-07T10:28:35;0.00;0.00;0.00
45700;PMS5003;36277;32.852;-116.998;2023-05-07T10:31:27;0.20;0.20;0.20
45700;PMS5003;36277;32.852;-116.998;2023-05-07T10:34:16;0.40;0.40;0.00
45700;PMS5003;36277;32.852;-116.998;2023-05-07T10:36:48;0.00;0.00;0.00
45700;PMS5003;36277;32.852;-116.998;2023-05-07T10:39:17;0.00;0.00;0.00
45700;PMS5003;36277;32.852;-116.998;2023-05-07T10:41:45;0.00;0.00;0.00
45700;PMS5003;36277;32.852;-116.998;2023-05-07T10:44:11;0.00;0.00;0.00
45700;PMS5003;36277;32.852;-116.998;2023-05-07T10:50:21;0.00;0.00;0.00
45700;PMS5003;36277;32.852;-116.998;2023-05-07T10:52:31;0.00;0.00;0.00
45700;PMS5003;36277;32.852;-116.998;2023-05-07T10:57:51;0.00;0.00;0.00
45700;PMS5003;36277;32.852;-116.998;2023-05-07T11:05:28;0.00;0.00;0.00
45700;PMS5003;36277;32.852;-116.998;2023-05-07T11:07:57;0.00;0.00;0.00
45700;PMS5003;36277;32.852;-116.998;2023-05-07T11:11:10;0.60;0.60;0.60
45700;PMS5003;36277;32.852;-116.998;2023-05-07T11:13:18;0.00;0.00;0.00
45700;PMS5003;36277;32.852;-116.998;2023-05-07T11:16:05;0.00;0.00;0.00
45700;PMS5003;36277;32.852;-116.998;2023-05-07T11:18:46;0.00;0.00;0.00
45700;PMS5003;36277;32.852;-116.998;2023-05-07T11:21:32;0.40;0.40;0.40
45700;PMS5003;36277;32.852;-116.998;2023-05-07T11:24:06;0.80;0.80;0.80
45700;PMS5003;36277;32.852;-116.998;2023-05-07T11:29:14;0.00;0.00;0.00
45700;PMS5003;36277;32.852;-116.998;2023-05-07T11:31:42;0.00;0.00;0.00
45700;PMS5003;36277;32.852;-116.998;2023-05-07T11:34:09;0.00;0.00;0.00
45700;PMS5003;36277;32.852;-116.998;2023-05-07T11:36:41;0.00;0.00;0.00
45700;PMS5003;36277;32.852;-116.998;2023-05-07T11:39:23;0.00;0.00;0.00
45700;PMS5003;36277;32.852;-116.998;2023-05-07T11:41:50;0.00;0.00;0.00
45700;PMS5003;36277;32.852;-116.998;2023-05-07T11:44:17;0.00;0.00;0.00
45700;PMS5003;36277;32.852;-116.998;2023-05-07T11:46:43;0.20;0.20;0.00
45700;PMS5003;36277;32.852;-116.998;2023-05-07T11:49:10;0.00;0.00;0.00
45700;PMS5003;36277;32.852;-116.998;2023-05-07T11:51:37;0.00;0.00;0.00
45700;PMS5003;36277;32.852;-116.998;2023-05-07T11:54:04;0.80;0.80;0.20
45700;PMS5003;36277;32.852;-116.998;2023-05-07T11:56:34;0.00;0.00;0.00
45700;PMS5003;36277;32.852;-116.998;2023-05-07T11:59:01;0.00;0.00;0.00
45700;PMS5003;36277;32.852;-116.998;2023-05-07T12:01:27;0.00;0.00;0.00
45700;PMS5003;36277;32.852;-116.998;2023-05-07T12:03:53;0.00;0.00;0.00
45700;PMS5003;36277;32.852;-116.998;2023-05-07T12:06:19;0.00;0.00;0.00
45700;PMS5003;36277;32.852;-116.998;2023-05-07T12:08:46;0.00;0.00;0.00
45700;PMS5003;36277;32.852;-116.998;2023-05-07T12:11:16;0.00;0.00;0.00
45700;PMS5003;36277;32.852;-116.998;2023-05-07T12:13:48;0.00;0.00;0.00
45700;PMS5003;36277;32.852;-116.998;2023-05-07T12:16:15;0.00;0.00;0.00
45700;PMS5003;36277;32.852;-116.998;2023-05-07T12:18:41;0.00;0.00;0.00
45700;PMS5003;36277;32.852;-116.998;2023-05-07T12:21:09;0.00;0.00;0.00
45700;PMS5003;36277;32.852;-116.998;2023-05-07T12:23:36;0.00;0.00;0.00
45700;PMS5003;36277;32.852;-116.998;2023-05-07T12:26:04;0.00;0.00;0.00
45700;PMS5003;36277;32.852;-116.998;2023-05-07T12:28:31;0.00;0.00;0.00
45700;PMS5003;36277;32.852;-116.998;2023-05-07T12:31:01;0.00;0.00;0.00
45700;PMS5003;36277;32.852;-116.998;2023-05-07T12:33:28;0.00;0.00;0.00
45700;PMS5003;36277;32.852;-116.998;2023-05-07T12:35:56;0.00;0.00;0.00
45700;PMS5003;36277;32.852;-116.998;2023-05-07T12:38:23;0.00;0.00;0.00
45700;PMS5003;36277;32.852;-116.998;2023-05-07T12:40:50;0.00;0.00;0.00
45700;PMS5003;36277;32.852;-116.998;2023-05-07T12:43:20;0.00;0.00;0.00
45700;PMS5003;36277;32.852;-116.998;2023-05-07T12:45:50;0.00;0.00;0.00
45700;PMS5003;36277;32.852;-116.998;2023-05-07T12:48:17;0.00;0.00;0.00
45700;PMS5003;36277;32.852;-116.998;2023-05-07T12:50:48;0.20;0.20;0.00
45700;PMS5003;36277;32.852;-116.998;2023-05-07T12:53:16;0.00;0.00;0.00
45700;PMS5003;36277;32.852;-116.998;2023-05-07T12:55:43;0.00;0.00;0.00
45700;PMS5003;36277;32.852;-116.998;2023-05-07T13:00:43;0.00;0.00;0.00
45700;PMS5003;36277;32.852;-116.998;2023-05-07T13:03:16;0.00;0.00;0.00
45700;PMS5003;36277;32.852;-116.998;2023-05-07T13:05:48;0.00;0.00;0.00
45700;PMS5003;36277;32.852;-116.998;2023-05-07T13:08:23;0.00;0.00;0.00
45700;PMS5003;36277;32.852;-116.998;2023-05-07T13:10:53;0.00;0.00;0.00
45700;PMS5003;36277;32.852;-116.998;2023-05-07T13:13:20;0.00;0.00;0.00
45700;PMS5003;36277;32.852;-116.998;2023-05-07T13:15:47;0.00;0.00;0.00
45700;PMS5003;36277;32.852;-116.998;2023-05-07T13:18:14;0.00;0.00;0.00
45700;PMS5003;36277;32.852;-116.998;2023-05-07T13:20:40;1.00;1.00;1.00
45700;PMS5003;36277;32.852;-116.998;2023-05-07T13:23:06;0.00;0.00;0.00
45700;PMS5003;36277;32.852;-116.998;2023-05-07T13:25:32;0.00;0.00;0.00
45700;PMS5003;36277;32.852;-116.998;2023-05-07T13:27:59;0.00;0.00;0.00
45700;PMS5003;36277;32.852;-116.998;2023-05-07T13:30:25;0.00;0.00;0.00
45700;PMS5003;36277;32.852;-116.998;2023-05-07T13:32:55;0.00;0.00;0.00
45700;PMS5003;36277;32.852;-116.998;2023-05-07T13:35:21;0.00;0.00;0.00
45700;PMS5003;36277;32.852;-116.998;2023-05-07T13:37:48;1.00;1.00;0.20
45700;PMS5003;36277;32.852;-116.998;2023-05-07T13:40:14;0.00;0.00;0.00
45700;PMS5003;36277;32.852;-116.998;2023-05-07T13:42:41;0.00;0.00;0.00
45700;PMS5003;36277;32.852;-116.998;2023-05-07T13:45:07;0.00;0.00;0.00
45700;PMS5003;36277;32.852;-116.998;2023-05-07T13:47:34;0.00;0.00;0.00
45700;PMS5003;36277;32.852;-116.998;2023-05-07T13:50:00;0.00;0.00;0.00
45700;PMS5003;36277;32.852;-116.998;2023-05-07T13:52:26;0.00;0.00;0.00
45700;PMS5003;36277;32.852;-116.998;2023-05-07T13:54:53;0.80;0.80;0.80
45700;PMS5003;36277;32.852;-116.998;2023-05-07T13:57:20;0.00;0.00;0.00
45700;PMS5003;36277;32.852;-116.998;2023-05-07T13:59:46;0.00;0.00;0.00
45700;PMS5003;36277;32.852;-116.998;2023-05-07T14:02:12;0.00;0.00;0.00
45700;PMS5003;36277;32.852;-116.998;2023-05-07T14:04:39;0.00;0.00;0.00
45700;PMS5003;36277;32.852;-116.998;2023-05-07T14:07:05;0.00;0.00;0.00